Time;durP1;ratioP1;P1;durP2;ratioP2;P2;SDS_P1;SDS_P2;PMS_P1;PMS_P2;Temp;Humidity;BMP_temperature;BMP_pressure;BME280_temperature;BME280_humidity;BME280_pressure;Samples;Min_cycle;Max_cycle;Signal;HPM_P1;HPM_P2
2022/03/08 00:01:28;;;;;;;20.25;12.77;;;;;;;-0.54;65.85;102306.63;5072563;28;20021;-58
2022/03/08 00:03:54;;;;;;;21.30;12.63;;;;;;;-0.56;65.98;102302.44;5072598;28;20499;-56
2022/03/08 00:06:19;;;;;;;21.88;12.98;;;;;;;-0.56;65.48;102294.28;5070669;28;20055;-56
2022/03/08 00:08:45;;;;;;;22.63;12.05;;;;;;;-0.58;65.73;102290.91;5071672;28;20028;-55
2022/03/08 00:11:10;;;;;;;21.25;13.45;;;;;;;-0.57;65.48;102304.31;5071431;28;20036;-56
2022/03/08 00:13:35;;;;;;;21.55;13.63;;;;;;;-0.58;65.63;102299.06;5071592;28;20507;-56
2022/03/08 00:16:01;;;;;;;21.15;12.75;;;;;;;-0.60;65.45;102301.13;5071028;28;20025;-56
2022/03/08 00:18:26;;;;;;;23.00;13.90;;;;;;;-0.63;65.59;102288.78;5071687;28;20032;-57
2022/03/08 00:20:51;;;;;;;21.75;13.15;;;;;;;-0.65;65.48;102290.84;5071535;28;20020;-56
2022/03/08 00:23:17;;;;;;;20.50;12.05;;;;;;;-0.65;65.92;102296.28;5071471;28;20044;-56
2022/03/08 00:25:42;;;;;;;21.35;14.93;;;;;;;-0.63;65.22;102281.47;5071552;28;20028;-58
2022/03/08 00:28:08;;;;;;;20.80;14.98;;;;;;;-0.62;65.42;102282.31;5070492;28;20035;-59
2022/03/08 00:30:33;;;;;;;22.13;14.23;;;;;;;-0.63;64.84;102281.47;5075396;28;20024;-58
2022/03/08 00:32:59;;;;;;;20.50;14.15;;;;;;;-0.60;65.05;102279.38;5075722;28;20025;-57
2022/03/08 00:35:25;;;;;;;21.88;16.13;;;;;;;-0.63;65.22;102275.19;5075566;28;20101;-57
2022/03/08 00:37:53;;;;;;;21.08;14.57;;;;;;;-0.69;64.68;102271.38;5075519;28;20024;-56
2022/03/08 00:40:21;;;;;;;20.70;13.82;;;;;;;-0.64;64.62;102277.06;5074589;28;20377;-56
2022/03/08 00:42:47;;;;;;;22.20;17.30;;;;;;;-0.65;65.02;102275.38;5075814;28;20032;-56
2022/03/08 00:45:12;;;;;;;23.45;16.20;;;;;;;-0.67;64.54;102271.19;5075538;28;20131;-56
2022/03/08 00:47:40;;;;;;;20.73;15.73;;;;;;;-0.68;64.25;102275.78;5075572;28;20067;-55
2022/03/08 00:50:08;;;;;;;22.75;14.93;;;;;;;-0.69;64.59;102279.53;5073888;28;20032;-55
2022/03/08 00:52:34;;;;;;;21.45;14.38;;;;;;;-0.69;64.66;102281.41;5075576;28;20028;-56
2022/03/08 00:54:59;;;;;;;20.50;15.48;;;;;;;-0.69;64.47;102290.41;5075222;28;20070;-55
2022/03/08 00:57:24;;;;;;;20.38;15.57;;;;;;;-0.72;64.61;102284.50;5075467;28;20033;-57
2022/03/08 00:59:50;;;;;;;20.55;14.30;;;;;;;-0.77;64.38;102282.38;5074564;28;20032;-56
2022/03/08 01:02:15;;;;;;;20.33;13.65;;;;;;;-0.74;64.58;102289.28;5074985;28;20112;-58
2022/03/08 01:04:40;;;;;;;20.05;14.27;;;;;;;-0.79;64.87;102285.31;5075216;28;20024;-55
2022/03/08 01:07:07;;;;;;;21.35;15.23;;;;;;;-0.79;64.33;102284.44;5075215;28;20123;-57
2022/03/08 01:09:32;;;;;;;20.77;15.90;;;;;;;-0.82;64.95;102279.41;5075283;28;20050;-56
2022/03/08 01:11:57;;;;;;;21.25;14.90;;;;;;;-0.83;65.16;102278.56;5074754;28;20490;-56
2022/03/08 01:14:23;;;;;;;21.63;16.42;;;;;;;-0.87;64.83;102277.28;5075237;28;20026;-56
2022/03/08 01:16:48;;;;;;;21.25;15.60;;;;;;;-0.88;65.18;102277.47;5075138;28;20033;-58
2022/03/08 01:19:13;;;;;;;19.92;13.00;;;;;;;-0.90;65.07;102279.56;5075336;28;20055;-57
2022/03/08 01:21:39;;;;;;;22.63;13.98;;;;;;;-0.90;65.10;102274.13;5074897;28;20459;-57
2022/03/08 01:24:05;;;;;;;21.05;13.32;;;;;;;-0.92;64.95;102268.84;5074930;28;20033;-57
2022/03/08 01:26:31;;;;;;;21.98;13.25;;;;;;;-0.93;64.64;102266.34;5075159;28;20472;-58
2022/03/08 01:28:57;;;;;;;20.92;12.93;;;;;;;-0.95;65.22;102261.13;5075345;28;20032;-56
2022/03/08 01:31:23;;;;;;;20.08;13.60;;;;;;;-0.97;65.04;102258.56;5075145;28;20036;-57
2022/03/08 01:33:49;;;;;;;19.35;11.90;;;;;;;-0.99;65.19;102259.81;5074860;28;20054;-57
2022/03/08 01:36:15;;;;;;;20.05;14.23;;;;;;;-1.00;65.02;102258.13;5075189;28;20043;-57
2022/03/08 01:38:40;;;;;;;21.58;12.85;;;;;;;-1.05;65.05;102247.84;5074812;28;20480;-56
2022/03/08 01:41:05;;;;;;;21.65;13.13;;;;;;;-1.02;64.99;102244.75;5074171;28;20021;-57
2022/03/08 01:43:30;;;;;;;21.35;14.27;;;;;;;-1.01;65.17;102240.13;5075174;28;20388;-58
2022/03/08 01:45:56;;;;;;;19.73;10.95;;;;;;;-1.00;65.43;102239.97;5074787;28;20086;-56
2022/03/08 01:48:21;;;;;;;22.02;14.07;;;;;;;-1.00;64.48;102236.38;5074673;28;20400;-56
2022/03/08 01:50:47;;;;;;;20.27;13.18;;;;;;;-1.01;65.14;102229.28;5074411;28;20421;-57
2022/03/08 01:53:13;;;;;;;21.48;12.82;;;;;;;-1.02;64.78;102228.44;5074580;28;20490;-56
2022/03/08 01:55:38;;;;;;;21.13;16.25;;;;;;;-1.02;64.45;102233.88;5074025;28;20134;-56
2022/03/08 01:58:03;;;;;;;21.90;14.85;;;;;;;-1.04;64.96;102225.06;5072974;28;20029;-56
2022/03/08 02:00:30;;;;;;;20.75;13.88;;;;;;;-1.08;64.90;102218.34;5074057;28;20030;-56
2022/03/08 02:02:57;;;;;;;21.02;16.50;;;;;;;-1.10;64.61;102223.16;5073684;28;20029;-57
2022/03/08 02:05:24;;;;;;;20.65;14.43;;;;;;;-1.11;65.07;102218.75;5073384;28;20050;-57
2022/03/08 02:07:50;;;;;;;20.13;14.82;;;;;;;-1.13;65.36;102213.50;5073229;28;20024;-56
2022/03/08 02:10:15;;;;;;;21.60;14.02;;;;;;;-1.12;64.83;102207.03;5073856;28;20036;-57
2022/03/08 02:12:40;;;;;;;21.17;15.23;;;;;;;-1.14;64.53;102203.69;5073814;28;20408;-56
2022/03/08 02:15:14;;;;;;;21.63;12.70;;;;;;;-1.14;64.67;102200.97;5073767;28;20525;-57
2022/03/08 02:17:39;;;;;;;20.38;14.15;;;;;;;-1.14;65.02;102210.97;5073742;28;20029;-56
2022/03/08 02:20:05;;;;;;;21.60;15.15;;;;;;;-1.15;64.79;102206.56;5073971;28;20036;-57
2022/03/08 02:22:31;;;;;;;20.95;14.82;;;;;;;-1.21;64.85;102202.75;5073588;28;20039;-56
2022/03/08 02:24:56;;;;;;;19.83;12.93;;;;;;;-1.24;64.96;102205.88;5073417;28;20031;-55
2022/03/08 02:27:21;;;;;;;21.98;13.90;;;;;;;-1.24;64.78;102205.88;5072425;28;20046;-55
2022/03/08 02:29:48;;;;;;;20.05;11.45;;;;;;;-1.27;64.76;102209.81;5073454;28;20021;-56
2022/03/08 02:32:13;;;;;;;19.92;13.68;;;;;;;-1.28;65.64;102199.13;5073876;28;20054;-56
2022/03/08 02:34:38;;;;;;;21.48;14.52;;;;;;;-1.29;65.10;102190.16;5074224;28;20107;-56
2022/03/08 02:37:07;;;;;;;19.92;14.48;;;;;;;-1.30;65.12;102201.19;5074164;28;20463;-56
2022/03/08 02:39:33;;;;;;;21.27;14.65;;;;;;;-1.33;64.93;102196.19;5071962;28;20085;-55
2022/03/08 02:41:59;;;;;;;20.48;14.43;;;;;;;-1.34;65.02;102194.50;5073751;28;20028;-56
2022/03/08 02:44:24;;;;;;;20.90;14.52;;;;;;;-1.35;64.93;102192.81;5073962;28;20040;-56
2022/03/08 02:46:51;;;;;;;21.05;13.63;;;;;;;-1.38;65.33;102196.75;5073388;28;20066;-57
2022/03/08 02:49:16;;;;;;;21.02;14.38;;;;;;;-1.38;65.23;102187.75;5073361;28;20028;-54
2022/03/08 02:51:42;;;;;;;20.55;14.68;;;;;;;-1.38;66.06;102183.19;5072622;28;20476;-56
2022/03/08 02:54:07;;;;;;;20.88;14.40;;;;;;;-1.40;65.54;102185.25;5072337;28;20190;-56
2022/03/08 02:56:33;;;;;;;23.05;15.15;;;;;;;-1.42;65.30;102182.69;5072107;28;20115;-55
2022/03/08 02:58:58;;;;;;;20.25;15.48;;;;;;;-1.44;65.77;102171.22;5072504;28;20526;-55
2022/03/08 03:01:23;;;;;;;20.15;14.48;;;;;;;-1.46;65.48;102164.28;5072661;28;20033;-56
2022/03/08 03:03:49;;;;;;;23.05;15.63;;;;;;;-1.46;65.82;102167.00;5072647;28;20115;-55
2022/03/08 03:06:14;;;;;;;20.67;13.43;;;;;;;-1.46;65.83;102167.00;5073036;28;20024;-56
2022/03/08 03:08:39;;;;;;;20.73;12.05;;;;;;;-1.50;65.74;102157.56;5072821;28;20020;-56
2022/03/08 03:11:04;;;;;;;21.00;13.25;;;;;;;-1.52;65.90;102148.78;5058711;22;20050;-55
2022/03/08 03:13:30;;;;;;;21.08;15.13;;;;;;;-1.55;65.93;102147.28;5032573;28;20500;-55
2022/03/08 03:15:55;;;;;;;21.45;14.10;;;;;;;-1.57;65.85;102146.63;5032586;28;20021;-55
2022/03/08 03:18:20;;;;;;;21.77;13.10;;;;;;;-1.59;65.94;102140.56;5031307;28;20028;-57
2022/03/08 03:20:45;;;;;;;21.45;13.65;;;;;;;-1.61;66.07;102129.91;5032121;28;20028;-54
2022/03/08 03:23:11;;;;;;;20.77;13.85;;;;;;;-1.62;66.12;102130.09;5032520;28;20040;-54
2022/03/08 03:25:36;;;;;;;21.38;13.57;;;;;;;-1.61;66.48;102131.78;5032480;28;20030;-54
2022/03/08 03:28:02;;;;;;;19.35;13.23;;;;;;;-1.61;66.02;102129.09;5032634;28;20385;-55
2022/03/08 03:30:27;;;;;;;20.33;14.00;;;;;;;-1.60;66.26;102118.03;5032538;28;20032;-54
2022/03/08 03:32:53;;;;;;;21.15;15.40;;;;;;;-1.61;66.00;102129.91;5032908;28;20493;-55
2022/03/08 03:35:18;;;;;;;21.42;15.07;;;;;;;-1.60;65.97;102131.59;5032877;28;20085;-53
2022/03/08 03:37:44;;;;;;;23.88;15.65;;;;;;;-1.60;66.28;102134.31;5031545;28;20029;-57
2022/03/08 03:40:10;;;;;;;20.48;13.77;;;;;;;-1.62;66.49;102133.66;5032732;28;20025;-55
2022/03/08 03:42:35;;;;;;;20.73;13.95;;;;;;;-1.61;66.64;102129.09;5032701;28;20127;-55
2022/03/08 03:45:02;;;;;;;20.42;13.25;;;;;;;-1.61;66.47;102143.47;5032582;28;20104;-56
2022/03/08 03:47:27;;;;;;;22.48;13.25;;;;;;;-1.62;66.19;102139.06;5032224;28;20026;-57
2022/03/08 03:49:53;;;;;;;23.00;13.70;;;;;;;-1.58;66.47;102150.38;5032160;28;20109;-56
2022/03/08 03:52:18;;;;;;;21.45;14.63;;;;;;;-1.60;66.53;102144.31;5032440;28;20033;-56
2022/03/08 03:54:43;;;;;;;20.80;12.50;;;;;;;-1.62;66.10;102143.69;5032498;28;20061;-55
2022/03/08 03:57:11;;;;;;;21.05;14.10;;;;;;;-1.64;66.31;102141.13;5031008;28;20033;-58
2022/03/08 03:59:37;;;;;;;21.13;13.48;;;;;;;-1.64;66.68;102146.56;5032293;28;20066;-57
2022/03/08 04:02:02;;;;;;;20.77;13.63;;;;;;;-1.61;66.25;102154.34;5032422;28;20030;-54
2022/03/08 04:04:27;;;;;;;21.10;14.00;;;;;;;-1.60;66.56;102145.16;5032328;28;20524;-55
2022/03/08 04:06:53;;;;;;;22.73;15.18;;;;;;;-1.64;66.43;102143.03;5032495;28;20053;-55
2022/03/08 04:09:19;;;;;;;21.77;14.68;;;;;;;-1.65;66.00;102142.16;5032633;28;20453;-57
2022/03/08 04:11:44;;;;;;;21.02;14.23;;;;;;;-1.64;66.87;102141.13;5050863;28;20496;-56
2022/03/08 04:14:10;;;;;;;21.65;12.05;;;;;;;-1.62;66.82;102138.25;5051694;28;20535;-56
2022/03/08 04:16:36;;;;;;;21.00;12.82;;;;;;;-1.61;66.37;102134.50;5052224;28;20029;-57
2022/03/08 04:19:01;;;;;;;21.27;13.90;;;;;;;-1.64;66.92;102124.03;5052290;28;20048;-56
2022/03/08 04:21:26;;;;;;;20.52;12.35;;;;;;;-1.62;66.29;102133.66;5052378;28;20029;-57
2022/03/08 04:23:51;;;;;;;20.55;12.82;;;;;;;-1.60;66.54;102128.03;5052059;28;20037;-56
2022/03/08 04:26:17;;;;;;;21.45;12.20;;;;;;;-1.58;66.33;102123.25;5051954;28;20401;-56
2022/03/08 04:28:42;;;;;;;20.88;11.88;;;;;;;-1.59;66.24;102121.56;5052186;28;20108;-56
2022/03/08 04:31:07;;;;;;;20.55;13.18;;;;;;;-1.60;66.37;102130.72;5052364;28;20025;-56
2022/03/08 04:33:33;;;;;;;21.33;12.90;;;;;;;-1.63;66.42;102117.56;5052246;28;20067;-58
2022/03/08 04:35:58;;;;;;;19.73;12.63;;;;;;;-1.65;66.81;102125.88;5052514;28;20426;-55
2022/03/08 04:38:23;;;;;;;19.95;11.98;;;;;;;-1.64;66.70;102121.31;5052301;28;20035;-55
2022/03/08 04:40:48;;;;;;;21.40;12.93;;;;;;;-1.66;67.04;102123.38;5052076;28;20037;-56
2022/03/08 04:43:14;;;;;;;20.23;13.80;;;;;;;-1.68;66.83;102131.72;5051596;28;20431;-54
2022/03/08 04:45:39;;;;;;;21.05;13.15;;;;;;;-1.69;66.40;102129.19;5052078;28;20033;-55
2022/03/08 04:48:04;;;;;;;21.17;12.98;;;;;;;-1.71;67.05;102121.25;5051899;28;20025;-58
2022/03/08 04:50:30;;;;;;;20.05;12.27;;;;;;;-1.71;66.75;102123.94;5051965;28;20037;-55
2022/03/08 04:52:55;;;;;;;20.42;13.15;;;;;;;-1.72;67.15;102122.28;5051823;28;20029;-57
2022/03/08 04:55:21;;;;;;;19.83;12.82;;;;;;;-1.71;66.87;102128.56;5052080;28;20037;-56
2022/03/08 04:57:47;;;;;;;21.63;13.55;;;;;;;-1.71;66.63;102126.66;5051616;28;20468;-56
2022/03/08 05:00:13;;;;;;;20.80;12.35;;;;;;;-1.74;66.90;102119.75;5051470;28;20053;-57
2022/03/08 05:02:40;;;;;;;20.88;13.48;;;;;;;-1.76;67.49;102129.97;5052123;28;20037;-57
2022/03/08 05:05:08;;;;;;;22.00;14.02;;;;;;;-1.79;67.04;102119.47;5051955;28;20032;-56
2022/03/08 05:07:34;;;;;;;21.92;14.60;;;;;;;-1.82;67.66;102122.59;5051987;28;20029;-56
2022/03/08 05:09:59;;;;;;;20.80;13.77;;;;;;;-1.83;67.24;102120.91;5051691;28;20052;-57
2022/03/08 05:12:24;;;;;;;21.13;13.02;;;;;;;-1.85;67.74;102124.84;5051490;28;20499;-54
2022/03/08 05:14:50;;;;;;;22.30;14.65;;;;;;;-1.86;67.91;102115.84;5051660;28;20032;-57
2022/03/08 05:17:15;;;;;;;20.70;13.25;;;;;;;-1.88;67.82;102123.34;5054388;28;20458;-56
2022/03/08 05:19:40;;;;;;;22.67;14.73;;;;;;;-1.89;67.85;102116.25;5055450;28;20033;-55
2022/03/08 05:22:06;;;;;;;21.13;12.95;;;;;;;-1.91;67.50;102111.00;5055633;28;20036;-57
2022/03/08 05:24:31;;;;;;;20.63;13.00;;;;;;;-1.89;67.86;102113.56;5055215;28;20033;-56
2022/03/08 05:26:56;;;;;;;20.67;14.57;;;;;;;-1.90;67.52;102109.97;5055404;28;20028;-55
2022/03/08 05:29:21;;;;;;;21.38;14.73;;;;;;;-1.92;67.38;102108.50;5055011;28;20029;-57
2022/03/08 05:31:47;;;;;;;21.10;15.27;;;;;;;-1.95;68.04;102106.16;5055305;28;20029;-55
2022/03/08 05:34:14;;;;;;;22.40;14.40;;;;;;;-1.94;67.97;102110.56;5055375;28;20419;-55
2022/03/08 05:36:39;;;;;;;19.83;14.10;;;;;;;-1.96;69.10;102104.47;5055204;28;20095;-56
2022/03/08 05:39:05;;;;;;;21.38;13.98;;;;;;;-1.97;68.63;102102.78;5055101;28;20560;-56
2022/03/08 05:41:30;;;;;;;20.80;14.40;;;;;;;-1.98;68.19;102103.84;5055168;28;20492;-56
2022/03/08 05:43:55;;;;;;;21.15;14.95;;;;;;;-2.00;68.41;102106.72;5054836;28;20107;-53
2022/03/08 05:46:20;;;;;;;22.73;16.10;;;;;;;-2.01;68.61;102105.03;5054578;28;20055;-54
2022/03/08 05:48:46;;;;;;;21.58;15.45;;;;;;;-2.00;69.65;102109.44;5054973;28;20150;-56
2022/03/08 05:51:11;;;;;;;23.23;15.27;;;;;;;-2.07;68.91;102103.09;5054715;28;20487;-53
2022/03/08 05:53:36;;;;;;;22.13;15.23;;;;;;;-2.06;69.41;102100.19;5054782;28;20083;-57
2022/03/08 05:56:02;;;;;;;22.45;14.88;;;;;;;-2.08;68.60;102107.66;5054870;28;20029;-56
2022/03/08 05:58:27;;;;;;;20.88;14.73;;;;;;;-2.08;68.97;102104.97;5054531;28;20033;-56
2022/03/08 06:00:52;;;;;;;23.33;14.07;;;;;;;-2.10;69.13;102101.63;5053985;28;20029;-55
2022/03/08 06:03:18;;;;;;;22.75;14.93;;;;;;;-2.12;69.11;102103.69;5053990;28;20086;-55
2022/03/08 06:05:43;;;;;;;22.35;15.02;;;;;;;-2.12;69.36;102110.97;5054587;28;20543;-55
2022/03/08 06:08:08;;;;;;;22.88;15.30;;;;;;;-2.13;69.17;102110.13;5054325;28;20113;-56
2022/03/08 06:10:34;;;;;;;22.75;15.60;;;;;;;-2.15;69.45;102114.91;5054454;28;20049;-55
2022/03/08 06:12:59;;;;;;;22.05;15.45;;;;;;;-2.15;69.61;102114.91;5054007;28;20169;-54
2022/03/08 06:15:25;;;;;;;22.30;15.45;;;;;;;-2.15;69.86;102109.47;5054073;28;20040;-54
2022/03/08 06:17:50;;;;;;;23.05;16.38;;;;;;;-2.14;69.46;102103.03;5054774;28;20036;-56
2022/03/08 06:20:15;;;;;;;21.90;14.70;;;;;;;-2.14;69.96;102118.47;5054550;28;20036;-57
2022/03/08 06:22:41;;;;;;;23.15;15.15;;;;;;;-2.09;69.87;102119.56;5053943;28;20059;-53
2022/03/08 06:25:07;;;;;;;22.15;15.07;;;;;;;-2.08;69.76;102115.81;5053440;28;20029;-57
2022/03/08 06:27:32;;;;;;;22.25;15.05;;;;;;;-2.04;69.59;102114.41;5053951;28;20493;-55
2022/03/08 06:29:57;;;;;;;22.60;15.90;;;;;;;-2.00;69.26;102114.03;5053535;28;20033;-57
2022/03/08 06:32:23;;;;;;;21.85;14.90;;;;;;;-1.97;69.32;102116.34;5054314;28;20104;-57
2022/03/08 06:34:50;;;;;;;20.88;13.55;;;;;;;-1.92;68.95;102117.47;5053783;28;20040;-54
2022/03/08 06:37:16;;;;;;;21.77;14.77;;;;;;;-1.88;69.34;102118.78;5053465;28;20472;-55
2022/03/08 06:39:41;;;;;;;22.95;14.95;;;;;;;-1.82;68.56;102110.88;5053761;28;20127;-57
2022/03/08 06:42:07;;;;;;;21.30;14.07;;;;;;;-1.80;68.73;102116.97;5051915;28;20111;-57
2022/03/08 06:44:32;;;;;;;20.40;13.25;;;;;;;-1.76;69.00;102116.38;5053401;28;20036;-55
2022/03/08 06:46:58;;;;;;;22.90;14.00;;;;;;;-1.75;68.78;102112.66;5053481;28;20377;-55
2022/03/08 06:49:23;;;;;;;23.27;14.38;;;;;;;-1.67;68.36;102110.84;5053652;28;20509;-55
2022/03/08 06:51:48;;;;;;;22.55;13.30;;;;;;;-1.63;68.37;102104.00;5053693;28;20040;-55
2022/03/08 06:54:14;;;;;;;22.77;14.10;;;;;;;-1.57;68.43;102104.06;5053310;28;20017;-55
2022/03/08 06:56:39;;;;;;;22.52;14.10;;;;;;;-1.50;68.58;102100.56;5053830;28;20456;-58
2022/03/08 06:59:04;;;;;;;22.38;14.40;;;;;;;-1.45;67.79;102100.81;5053339;28;20029;-56
2022/03/08 07:01:30;;;;;;;22.38;13.88;;;;;;;-1.41;67.66;102102.13;5053370;28;20379;-55
2022/03/08 07:03:55;;;;;;;21.67;13.93;;;;;;;-1.35;67.61;102105.94;5053511;28;20029;-57
2022/03/08 07:06:21;;;;;;;21.80;13.80;;;;;;;-1.29;67.79;102111.44;5053023;28;20071;-56
2022/03/08 07:08:50;;;;;;;21.50;14.10;;;;;;;-1.23;67.29;102107.09;5053067;28;20155;-55
2022/03/08 07:11:16;;;;;;;22.60;14.07;;;;;;;-1.12;66.80;102111.13;5052370;28;20049;-56
2022/03/08 07:13:41;;;;;;;21.83;13.80;;;;;;;-1.02;65.78;102108.91;5053163;28;20032;-56
2022/03/08 07:16:07;;;;;;;21.88;12.90;;;;;;;-0.95;66.18;102109.81;5052540;28;20397;-57
2022/03/08 07:18:32;;;;;;;21.73;12.70;;;;;;;-0.88;65.58;102104.44;5053008;28;20025;-56
2022/03/08 07:21:00;;;;;;;21.60;13.18;;;;;;;-0.81;65.19;102120.78;5052992;28;20056;-56
2022/03/08 07:23:25;;;;;;;23.83;14.02;;;;;;;-0.75;65.54;102119.97;5053083;28;20021;-56
2022/03/08 07:25:50;;;;;;;21.83;13.77;;;;;;;-0.67;65.18;102122.53;5053085;28;20392;-57
2022/03/08 07:28:16;;;;;;;22.48;13.80;;;;;;;-0.57;64.86;102110.47;5052893;28;20036;-56
2022/03/08 07:30:41;;;;;;;22.02;13.65;;;;;;;-0.54;65.12;102110.06;5052804;28;20029;-57
2022/03/08 07:33:06;;;;;;;21.92;13.90;;;;;;;-0.45;64.61;102116.16;5052224;28;20021;-56
2022/03/08 07:35:31;;;;;;;22.60;14.43;;;;;;;-0.39;63.91;102116.22;5053103;28;20017;-56
2022/03/08 07:37:57;;;;;;;21.83;14.18;;;;;;;-0.29;64.24;102115.84;5052604;28;20025;-57
2022/03/08 07:40:22;;;;;;;21.98;14.38;;;;;;;-0.22;63.91;102124.00;5052412;28;20133;-55
2022/03/08 07:42:47;;;;;;;21.83;14.95;;;;;;;-0.13;63.26;102121.97;5053207;28;20025;-56
2022/03/08 07:45:13;;;;;;;21.52;14.15;;;;;;;-0.07;63.15;102113.00;5052498;28;20037;-55
2022/03/08 07:47:38;;;;;;;21.15;13.95;;;;;;;0.03;62.71;102118.06;5052824;28;20104;-57
2022/03/08 07:50:05;;;;;;;22.02;14.60;;;;;;;0.09;61.95;102109.94;5052829;28;20061;-57
2022/03/08 07:52:30;;;;;;;21.58;14.07;;;;;;;0.18;62.02;102112.47;5051973;28;20029;-56
2022/03/08 07:54:56;;;;;;;21.83;14.13;;;;;;;0.26;62.46;102107.66;5052285;28;20036;-54
2022/03/08 07:57:21;;;;;;;22.52;14.48;;;;;;;0.33;61.65;102095.97;5052761;28;20583;-55
2022/03/08 07:59:46;;;;;;;23.95;15.45;;;;;;;0.43;61.96;102101.81;5052932;28;20028;-56
2022/03/08 08:02:12;;;;;;;22.60;15.00;;;;;;;0.50;61.28;102101.81;5052592;28;20040;-57
2022/03/08 08:04:37;;;;;;;21.15;14.13;;;;;;;0.58;60.63;102105.19;5053103;28;20028;-57
2022/03/08 08:07:03;;;;;;;23.67;14.50;;;;;;;0.66;59.96;102098.72;5052885;28;20053;-55
2022/03/08 08:09:28;;;;;;;21.35;13.75;;;;;;;0.70;59.91;102115.50;5052889;28;20394;-57
2022/03/08 08:11:53;;;;;;;21.88;13.93;;;;;;;0.78;60.25;102112.56;5052837;28;20094;-56
2022/03/08 08:14:19;;;;;;;22.52;14.23;;;;;;;0.89;58.92;102113.78;5052772;28;20377;-56
2022/03/08 08:16:45;;;;;;;21.58;13.65;;;;;;;0.95;59.35;102112.94;5052720;28;20073;-57
2022/03/08 08:19:11;;;;;;;21.45;13.60;;;;;;;1.08;58.29;102112.94;5053093;28;20029;-58
2022/03/08 08:21:36;;;;;;;22.30;13.45;;;;;;;1.16;58.77;102105.59;5052560;28;20021;-56
2022/03/08 08:24:02;;;;;;;21.90;13.40;;;;;;;1.19;58.24;102111.47;5052697;28;20036;-55
2022/03/08 08:26:27;;;;;;;24.23;13.75;;;;;;;1.25;58.15;102104.31;5052068;28;20021;-51
2022/03/08 08:28:52;;;;;;;21.27;13.07;;;;;;;1.36;57.93;102105.59;5032695;28;20021;-56
2022/03/08 08:31:18;;;;;;;22.10;13.70;;;;;;;1.42;57.69;102109.34;5036409;28;20025;-54
2022/03/08 08:33:43;;;;;;;20.40;13.25;;;;;;;1.51;57.59;102113.53;5037873;28;20487;-56
2022/03/08 08:36:08;;;;;;;20.88;12.80;;;;;;;1.61;56.90;102113.06;5047524;28;20060;-56
2022/03/08 08:38:34;;;;;;;22.27;13.45;;;;;;;1.66;56.76;102118.69;5051497;28;20104;-57
2022/03/08 08:40:59;;;;;;;21.23;14.15;;;;;;;1.76;56.52;102121.81;5052602;28;20029;-55
2022/03/08 08:43:25;;;;;;;21.00;14.05;;;;;;;1.85;56.60;102114.22;5052364;28;20028;-56
2022/03/08 08:45:52;;;;;;;19.48;13.98;;;;;;;1.94;55.66;102115.66;5052516;28;20056;-55
2022/03/08 08:48:19;;;;;;;21.27;13.73;;;;;;;2.05;55.24;102107.84;5052831;28;20033;-56
2022/03/08 08:50:44;;;;;;;20.77;13.30;;;;;;;2.13;55.08;102102.13;5042007;28;20037;-55
2022/03/08 08:53:09;;;;;;;19.65;13.55;;;;;;;2.26;54.67;102112.13;5035549;28;20026;-56
2022/03/08 08:55:36;;;;;;;20.73;12.75;;;;;;;2.34;54.09;102103.69;5036315;28;20117;-56
2022/03/08 08:58:05;;;;;;;22.23;13.27;;;;;;;2.43;53.62;102107.00;5036678;28;20389;-55
2022/03/08 09:00:31;;;;;;;21.85;13.85;;;;;;;2.54;54.63;102108.19;5035288;28;20445;-54
2022/03/08 09:02:56;;;;;;;20.80;12.90;;;;;;;2.62;53.67;102106.03;5036571;28;20078;-55
2022/03/08 09:05:22;;;;;;;21.85;14.25;;;;;;;2.76;53.43;102097.69;5036183;28;20037;-55
2022/03/08 09:07:47;;;;;;;21.58;13.90;;;;;;;2.86;53.10;102095.31;5037013;28;20116;-55
2022/03/08 09:10:13;;;;;;;19.38;13.27;;;;;;;2.95;53.27;102096.69;5035859;28;20049;-55
2022/03/08 09:12:39;;;;;;;22.25;14.02;;;;;;;3.04;52.05;102093.69;5038583;28;20396;-54
2022/03/08 09:15:05;;;;;;;22.52;14.32;;;;;;;3.11;52.04;102070.69;5053680;28;20036;-56
2022/03/08 09:17:30;;;;;;;21.42;12.90;;;;;;;3.20;51.56;102081.34;5051481;28;20487;-55
2022/03/08 09:19:56;;;;;;;20.98;12.73;;;;;;;3.27;51.05;102082.09;5044880;28;20032;-56
2022/03/08 09:22:21;;;;;;;22.20;13.00;;;;;;;3.39;50.55;102082.19;5036003;28;20152;-56
2022/03/08 09:24:46;;;;;;;22.98;12.23;;;;;;;3.44;51.49;102076.88;5035695;28;20052;-59
2022/03/08 09:27:12;;;;;;;20.48;11.70;;;;;;;3.53;50.91;102077.41;5035973;28;20029;-56
2022/03/08 09:29:37;;;;;;;20.42;13.00;;;;;;;3.62;49.71;102073.31;5035913;28;20025;-56
2022/03/08 09:32:02;;;;;;;22.77;11.85;;;;;;;3.69;49.50;102067.72;5035995;28;20044;-56
2022/03/08 09:34:28;;;;;;;20.63;13.48;;;;;;;3.73;49.74;102061.56;5035800;28;20033;-56
2022/03/08 09:36:53;;;;;;;20.80;12.73;;;;;;;3.82;49.49;102069.47;5035917;28;20021;-57
2022/03/08 09:39:18;;;;;;;22.75;12.95;;;;;;;3.92;49.28;102066.19;5035626;28;20025;-56
2022/03/08 09:41:45;;;;;;;19.95;13.05;;;;;;;3.97;49.25;102061.69;5035838;28;20465;-56
2022/03/08 09:44:14;;;;;;;20.40;13.43;;;;;;;4.06;48.87;102063.03;5035723;28;20031;-56
2022/03/08 09:46:40;;;;;;;21.27;12.68;;;;;;;4.11;48.67;102054.13;5035673;28;20128;-55
2022/03/08 09:49:06;;;;;;;19.73;12.40;;;;;;;4.17;48.84;102058.66;5034501;28;20504;-56
2022/03/08 09:51:32;;;;;;;21.83;13.02;;;;;;;4.27;48.96;102062.72;5034603;28;20030;-57
2022/03/08 09:53:57;;;;;;;20.88;13.65;;;;;;;4.38;49.30;102053.72;5037868;28;20104;-55
2022/03/08 09:56:22;;;;;;;22.10;12.75;;;;;;;4.46;48.97;102047.06;5035135;28;20021;-56
2022/03/08 09:58:48;;;;;;;21.08;13.25;;;;;;;4.53;47.71;102047.78;5035142;28;20033;-56
2022/03/08 10:01:14;;;;;;;21.50;12.35;;;;;;;4.59;46.37;102040.53;5035058;28;20049;-57
2022/03/08 10:03:43;;;;;;;20.95;12.80;;;;;;;4.60;47.32;102042.22;5035149;28;20033;-55
2022/03/08 10:06:10;;;;;;;21.23;13.15;;;;;;;4.71;47.32;102046.88;5035221;28;20025;-54
2022/03/08 10:08:37;;;;;;;22.42;12.43;;;;;;;4.79;47.21;102035.56;5035460;28;20026;-53
2022/03/08 10:11:09;;;;;;;20.05;13.55;;;;;;;4.79;46.70;102026.47;5045592;28;20053;-54
2022/03/08 10:13:40;;;;;;;22.50;13.40;;;;;;;4.94;46.75;102034.22;5055153;28;20111;-57
2022/03/08 10:16:12;;;;;;;22.35;13.90;;;;;;;5.03;46.58;102023.75;5054924;28;20025;-56
2022/03/08 10:18:47;;;;;;;20.38;12.32;;;;;;;5.03;46.70;102023.75;5054786;28;20163;-59
2022/03/08 10:21:27;;;;;;;19.88;12.65;;;;;;;5.04;47.83;102023.50;5037365;28;20151;-55
2022/03/08 10:23:53;;;;;;;20.40;13.05;;;;;;;5.13;46.29;102018.50;5034980;28;20033;-54
2022/03/08 10:26:19;;;;;;;20.75;12.90;;;;;;;5.22;45.63;102018.94;5035083;28;20393;-55
2022/03/08 10:28:47;;;;;;;21.15;13.07;;;;;;;5.31;45.47;102021.09;5034544;28;20096;-55
2022/03/08 10:31:14;;;;;;;21.55;12.57;;;;;;;5.41;44.42;102012.22;5034100;28;20123;-54
2022/03/08 10:33:40;;;;;;;20.73;12.13;;;;;;;5.45;43.75;102013.41;5034611;28;20029;-55
2022/03/08 10:36:13;;;;;;;21.63;12.27;;;;;;;5.49;44.18;102007.41;5034693;28;20464;-54
2022/03/08 10:38:40;;;;;;;22.33;13.10;;;;;;;5.62;43.35;102007.16;5034612;28;20033;-55
2022/03/08 10:41:19;;;;;;;20.67;13.15;;;;;;;5.71;45.28;102005.69;5041889;28;20427;-54
2022/03/08 10:43:49;;;;;;;19.67;12.30;;;;;;;5.87;44.70;102009.56;5041926;28;20033;-54
2022/03/08 10:46:18;;;;;;;21.35;12.90;;;;;;;5.96;43.77;102006.41;5037419;28;20021;-55
2022/03/08 10:48:46;;;;;;;22.20;12.57;;;;;;;6.00;42.59;101994.72;5042766;28;20123;-56
2022/03/08 10:51:15;;;;;;;20.83;11.95;;;;;;;6.15;43.16;101996.91;5044981;28;20032;-56
2022/03/08 10:53:43;;;;;;;20.17;12.02;;;;;;;6.20;42.37;101980.50;5033218;28;20469;-56
2022/03/08 10:56:09;;;;;;;21.90;11.82;;;;;;;6.29;41.89;101978.19;5032310;28;20044;-53
2022/03/08 10:58:48;;;;;;;20.08;11.77;;;;;;;6.35;42.48;101968.09;5031949;28;20033;-56
2022/03/08 11:01:13;;;;;;;20.02;12.10;;;;;;;6.38;40.94;101970.34;5031856;28;20033;-55
2022/03/08 11:03:38;;;;;;;21.67;12.00;;;;;;;6.37;39.93;101968.69;5031941;28;20037;-57
2022/03/08 11:06:06;;;;;;;21.83;12.05;;;;;;;6.38;39.92;101976.69;5030294;28;20100;-57